Time;durP1;ratioP1;P1;durP2;ratioP2;P2;SDS_P1;SDS_P2;PMS_P1;PMS_P2;Temp;Humidity;BMP_temperature;BMP_pressure;BME280_temperature;BME280_humidity;BME280_pressure;Samples;Min_cycle;Max_cycle;Signal;HPM_P1;HPM_P2
2021/07/12 00:00:28;;;;;;;7.37;5.05;;;;;;;20.97;60.16;100715.73;1713001;82;26158;-73
2021/07/12 00:02:57;;;;;;;6.35;4.45;;;;;;;20.96;60.25;100715.88;1695781;81;25777;-73
2021/07/12 00:05:26;;;;;;;5.28;4.10;;;;;;;20.96;60.37;100715.37;1697025;81;27406;-72
2021/07/12 00:07:54;;;;;;;11.10;4.58;;;;;;;20.97;60.45;100710.79;1713265;81;26400;-73
2021/07/12 00:10:25;;;;;;;7.55;5.17;;;;;;;20.95;60.49;100704.61;1695782;82;25937;-73
2021/07/12 00:12:52;;;;;;;5.70;5.03;;;;;;;20.93;60.52;100710.19;1704571;82;26661;-73
2021/07/12 00:15:21;;;;;;;9.48;4.87;;;;;;;20.92;60.63;100710.31;1714998;81;25740;-72
2021/07/12 00:17:49;;;;;;;5.22;4.45;;;;;;;20.91;60.75;100720.35;1692337;82;28209;-72
2021/07/12 00:20:19;;;;;;;5.00;4.30;;;;;;;20.94;60.79;100720.59;1700523;82;25774;-72
2021/07/12 00:22:51;;;;;;;4.35;3.95;;;;;;;20.89;60.91;100722.34;1700671;82;25763;-72
2021/07/12 00:25:19;;;;;;;5.37;4.85;;;;;;;20.83;61.07;100725.59;1707554;81;26829;-72
2021/07/12 00:27:47;;;;;;;8.33;4.65;;;;;;;20.79;61.19;100721.42;1706142;83;25313;-72
2021/07/12 00:30:18;;;;;;;5.40;4.62;;;;;;;20.76;61.36;100713.52;1707112;82;27480;-72
2021/07/12 00:32:45;;;;;;;5.97;4.75;;;;;;;20.77;61.42;100721.19;1698524;82;25937;-73
2021/07/12 00:35:15;;;;;;;6.42;4.33;;;;;;;20.74;61.54;100723.17;1719032;82;25798;-73
2021/07/12 00:37:43;;;;;;;5.87;4.60;;;;;;;20.73;61.72;100715.14;1693648;82;26768;-73
2021/07/12 00:40:14;;;;;;;8.48;4.65;;;;;;;20.66;61.94;100726.18;1696726;81;25789;-73
2021/07/12 00:42:42;;;;;;;4.80;4.33;;;;;;;20.64;62.05;100722.72;1686918;81;27978;-73
2021/07/12 00:45:14;;;;;;;5.05;4.58;;;;;;;20.64;62.19;100718.64;1697617;81;26098;-73
2021/07/12 00:47:42;;;;;;;6.90;5.03;;;;;;;20.62;62.33;100723.34;1695807;83;25883;-73
2021/07/12 00:50:13;;;;;;;5.50;4.85;;;;;;;20.62;62.37;100720.62;1662997;83;26795;-73
2021/07/12 00:52:40;;;;;;;6.58;5.37;;;;;;;20.60;62.46;100720.75;1631445;85;25769;-72
2021/07/12 00:55:20;;;;;;;5.25;4.62;;;;;;;20.60;62.63;100722.11;1705641;81;27483;-72
2021/07/12 00:57:49;;;;;;;5.85;4.70;;;;;;;20.56;62.80;100723.36;1693380;82;25687;-73
2021/07/12 01:00:21;;;;;;;10.82;4.85;;;;;;;20.55;62.87;100721.63;1707644;81;25722;-73
2021/07/12 01:02:49;;;;;;;12.65;4.80;;;;;;;20.52;63.06;100723.75;1697382;83;26582;-73
2021/07/12 01:05:19;;;;;;;9.75;4.35;;;;;;;20.50;63.25;100717.56;1708784;81;25775;-73
2021/07/12 01:07:46;;;;;;;6.55;4.37;;;;;;;20.51;63.31;100715.21;1708797;82;27426;-72
2021/07/12 01:10:15;;;;;;;4.90;4.25;;;;;;;20.53;63.34;100711.86;1691108;81;25820;-73
2021/07/12 01:13:04;;;;;;;5.12;4.62;;;;;;;20.55;63.43;100714.83;1657836;83;26552;-75
2021/07/12 01:15:50;;;;;;;5.70;4.58;;;;;;;20.55;63.44;100717.55;1694529;81;26118;-73
2021/07/12 01:18:28;;;;;;;10.80;4.65;;;;;;;20.56;63.53;100715.69;1697785;82;25753;-73
2021/07/12 01:21:37;;;;;;;6.67;5.03;;;;;;;20.53;63.63;100711.86;1687159;81;27365;-73
2021/07/12 01:24:42;;;;;;;5.80;4.90;;;;;;;20.53;63.66;100707.78;1712149;81;25801;-73
2021/07/12 01:27:52;;;;;;;6.87;4.33;;;;;;;20.52;63.75;100706.91;1692435;83;25885;-73
2021/07/12 01:30:58;;;;;;;8.23;4.58;;;;;;;20.56;63.82;100706.16;1687703;83;26017;-73
2021/07/12 01:33:33;;;;;;;6.47;4.50;;;;;;;20.55;63.79;100696.27;1659463;83;25710;-73
2021/07/12 01:36:14;;;;;;;5.47;4.45;;;;;;;20.52;63.87;100685.63;1676264;83;27558;-73
2021/07/12 01:39:07;;;;;;;7.65;5.03;;;;;;;20.50;63.91;100678.95;1657093;83;26276;-73
2021/07/12 01:41:50;;;;;;;5.50;4.97;;;;;;;20.46;64.01;100677.97;1633625;85;25778;-72
2021/07/12 01:44:46;;;;;;;5.97;4.90;;;;;;;20.39;64.20;100674.90;1676503;82;26127;-73
2021/07/12 01:47:15;;;;;;;6.03;5.05;;;;;;;20.37;64.39;100676.86;1689724;83;25314;-72
2021/07/12 01:50:03;;;;;;;9.58;5.45;;;;;;;20.34;64.47;100668.94;1682178;82;30409;-73
2021/07/12 01:53:07;;;;;;;6.72;5.53;;;;;;;20.32;64.57;100669.56;1674373;82;25802;-73
2021/07/12 01:56:01;;;;;;;10.08;5.65;;;;;;;20.28;64.78;100659.92;1672668;82;25768;-73
2021/07/12 01:59:04;;;;;;;8.53;6.58;;;;;;;20.24;64.87;100662.05;1656374;84;26052;-72
2021/07/12 02:01:34;;;;;;;9.90;5.62;;;;;;;20.22;65.02;100659.08;1671806;82;25869;-73
2021/07/12 02:04:03;;;;;;;8.83;5.45;;;;;;;20.22;65.16;100657.22;1679016;83;27508;-73
2021/07/12 02:06:38;;;;;;;6.95;5.55;;;;;;;20.19;65.13;100656.12;1677441;82;26149;-72
2021/07/12 02:09:09;;;;;;;6.70;5.90;;;;;;;20.17;65.30;100659.46;1681000;83;25885;-72
2021/07/12 02:11:46;;;;;;;8.65;5.20;;;;;;;20.14;65.37;100661.08;1667122;82;26163;-73
2021/07/12 02:14:19;;;;;;;8.93;6.17;;;;;;;20.16;65.45;100661.81;1681781;82;28040;-73
2021/07/12 02:16:48;;;;;;;6.47;5.35;;;;;;;20.13;65.47;100659.34;1689619;82;28135;-72
2021/07/12 02:19:17;;;;;;;6.03;5.40;;;;;;;20.10;65.56;100656.38;1671691;82;27582;-73
2021/07/12 02:21:48;;;;;;;6.62;5.37;;;;;;;20.10;65.65;100650.94;1685121;82;26085;-73
2021/07/12 02:24:19;;;;;;;7.58;5.37;;;;;;;20.09;65.68;100659.23;1672693;82;26591;-72
2021/07/12 02:26:46;;;;;;;9.05;5.70;;;;;;;20.05;65.76;100659.12;1670788;84;26760;-73
2021/07/12 02:29:16;;;;;;;8.18;5.47;;;;;;;20.02;65.81;100667.04;1631438;85;28526;-72
2021/07/12 02:31:43;;;;;;;9.18;6.05;;;;;;;20.02;65.95;100660.23;1664341;83;26328;-73
2021/07/12 02:34:11;;;;;;;7.60;4.95;;;;;;;20.02;66.00;100653.43;1650645;84;26009;-72
2021/07/12 02:36:37;;;;;;;6.87;5.60;;;;;;;19.99;65.97;100644.66;1645122;84;26762;-72
2021/07/12 02:39:10;;;;;;;6.10;5.50;;;;;;;19.97;66.20;100648.00;1680458;82;25857;-72
2021/07/12 02:41:38;;;;;;;11.68;5.97;;;;;;;19.96;66.24;100650.35;1674728;82;27457;-73
2021/07/12 02:44:10;;;;;;;9.03;5.42;;;;;;;19.97;66.28;100652.08;1700463;82;25746;-72
2021/07/12 02:46:40;;;;;;;9.45;5.80;;;;;;;19.98;66.37;100648.38;1690344;82;25883;-72
2021/07/12 02:49:07;;;;;;;11.78;5.50;;;;;;;19.98;66.44;100641.08;1710074;82;26032;-72
2021/07/12 02:51:47;;;;;;;11.95;5.83;;;;;;;19.98;66.41;100642.93;1661030;84;25798;-72
2021/07/12 02:54:18;;;;;;;6.87;5.87;;;;;;;19.95;66.57;100639.97;1693806;81;27479;-73
2021/07/12 02:56:46;;;;;;;9.85;5.25;;;;;;;19.94;66.59;100643.68;1681549;82;25765;-72
2021/07/12 02:59:15;;;;;;;7.50;6.17;;;;;;;19.92;66.66;100640.72;1697029;83;26284;-72
2021/07/12 03:01:43;;;;;;;9.33;6.05;;;;;;;19.90;66.82;100642.20;1641612;84;26067;-73
2021/07/12 03:04:08;;;;;;;7.97;5.33;;;;;;;19.91;66.86;100643.93;1696523;83;25863;-72
2021/07/12 03:06:37;;;;;;;8.95;5.22;;;;;;;19.88;66.84;100646.04;1702824;82;27576;-72
2021/07/12 03:09:08;;;;;;;8.58;5.65;;;;;;;19.84;67.01;100648.14;1685246;82;25678;-72
2021/07/12 03:11:51;;;;;;;7.17;5.42;;;;;;;19.85;67.12;100642.20;1697548;81;25816;-72
2021/07/12 03:14:32;;;;;;;7.50;5.72;;;;;;;19.86;67.14;100639.86;1701220;82;26004;-72
2021/07/12 03:17:00;;;;;;;11.33;7.03;;;;;;;19.86;67.19;100638.00;1704856;82;25719;-72
2021/07/12 03:19:31;;;;;;;8.60;5.78;;;;;;;19.85;67.31;100634.91;1709004;82;27475;-72
2021/07/12 03:22:07;;;;;;;11.10;5.97;;;;;;;19.85;67.33;100633.55;1697351;83;25701;-72
2021/07/12 03:24:37;;;;;;;10.40;6.10;;;;;;;19.85;67.40;100637.63;1692259;83;25782;-72
2021/07/12 03:27:06;;;;;;;7.60;5.95;;;;;;;19.83;67.44;100643.70;1702273;81;26657;-72
2021/07/12 03:29:36;;;;;;;11.60;5.78;;;;;;;19.85;67.57;100650.37;1717932;81;25711;-72
2021/07/12 03:32:08;;;;;;;8.80;6.00;;;;;;;19.84;67.61;100645.92;1705710;82;28055;-72
2021/07/12 03:34:36;;;;;;;9.30;5.78;;;;;;;19.84;67.69;100648.64;1670987;83;25769;-72
2021/07/12 03:37:03;;;;;;;9.08;6.12;;;;;;;19.83;67.70;100640.11;1690271;83;25788;-72
2021/07/12 03:39:31;;;;;;;9.55;6.45;;;;;;;19.82;67.81;100643.82;1699275;82;26167;-72
2021/07/12 03:42:00;;;;;;;6.60;5.58;;;;;;;19.82;67.90;100638.38;1693497;82;25820;-72
2021/07/12 03:44:27;;;;;;;10.20;5.90;;;;;;;19.82;67.98;100641.09;1696636;82;27485;-73
2021/07/12 03:46:54;;;;;;;9.25;5.90;;;;;;;19.86;67.99;100639.86;1702351;82;26133;-72
2021/07/12 03:49:23;;;;;;;12.23;6.50;;;;;;;19.81;68.07;100625.77;1682404;83;25999;-72
2021/07/12 03:51:51;;;;;;;9.43;6.30;;;;;;;19.88;68.15;100636.52;1677053;82;26007;-72
2021/07/12 03:54:18;;;;;;;7.87;6.42;;;;;;;19.93;68.23;100637.87;1708253;82;25752;-72
2021/07/12 03:56:46;;;;;;;9.33;6.33;;;;;;;19.96;68.23;100635.39;1693869;82;28296;-72
2021/07/12 03:59:14;;;;;;;8.75;6.62;;;;;;;19.95;68.28;100645.91;1698280;83;25916;-72
2021/07/12 04:01:42;;;;;;;10.43;6.85;;;;;;;19.97;68.39;100652.08;1690576;83;25316;-73
2021/07/12 04:04:08;;;;;;;11.25;6.83;;;;;;;19.96;68.44;100653.94;1700045;82;25901;-73
2021/07/12 04:06:36;;;;;;;12.37;6.90;;;;;;;20.02;68.58;100652.08;1708407;82;25902;-73
2021/07/12 04:09:04;;;;;;;8.13;6.37;;;;;;;20.10;68.57;100656.88;1695903;82;27391;-72
2021/07/12 04:11:36;;;;;;;8.95;6.20;;;;;;;20.16;68.56;100659.59;1691744;82;26378;-73
2021/07/12 04:14:04;;;;;;;13.43;6.53;;;;;;;20.19;68.54;100662.92;1699131;82;25831;-72
2021/07/12 04:16:35;;;;;;;7.62;6.30;;;;;;;20.22;68.46;100665.88;1696241;83;26163;-73
2021/07/12 04:19:01;;;;;;;8.33;6.65;;;;;;;20.23;68.62;100658.09;1690324;82;25906;-72
2021/07/12 04:21:28;;;;;;;8.58;6.30;;;;;;;20.24;68.57;100637.55;1679160;83;25807;-72
2021/07/12 04:23:54;;;;;;;9.60;7.10;;;;;;;20.23;68.52;100630.37;1703893;82;25898;-73
2021/07/12 04:26:22;;;;;;;9.05;6.03;;;;;;;20.17;68.65;100625.94;1704291;82;25901;-71
2021/07/12 04:28:48;;;;;;;10.30;6.95;;;;;;;20.17;68.71;100627.30;1653922;84;26935;-70
2021/07/12 04:31:14;;;;;;;10.45;6.30;;;;;;;20.15;68.78;100639.67;1704578;82;25806;-71
2021/07/12 04:33:40;;;;;;;12.13;7.15;;;;;;;20.13;68.90;100636.22;1667426;84;27461;-72
2021/07/12 04:36:12;;;;;;;10.05;6.78;;;;;;;20.15;68.91;100637.45;1694798;81;26055;-72
2021/07/12 04:38:40;;;;;;;10.28;7.10;;;;;;;20.13;68.92;100625.83;1699061;81;25698;-72
2021/07/12 04:41:11;;;;;;;12.18;7.05;;;;;;;20.10;69.04;100626.95;1703456;82;26204;-72
2021/07/12 04:43:37;;;;;;;24.77;10.40;;;;;;;20.11;69.09;100638.20;1648558;84;25732;-72
2021/07/12 04:46:04;;;;;;;14.15;7.67;;;;;;;20.11;69.13;100628.67;1665029;83;27500;-72
2021/07/12 04:48:29;;;;;;;13.25;7.37;;;;;;;20.13;69.13;100617.66;1667876;83;26378;-72
2021/07/12 04:50:55;;;;;;;14.07;6.87;;;;;;;20.12;69.13;100622.73;1670780;83;25960;-72
2021/07/12 04:53:24;;;;;;;8.95;7.25;;;;;;;20.09;69.21;100622.50;1674243;82;26121;-69
2021/07/12 04:55:53;;;;;;;12.58;7.72;;;;;;;20.09;69.33;100609.75;1677121;82;25516;-70
2021/07/12 04:58:21;;;;;;;9.65;7.17;;;;;;;20.09;69.37;100611.61;1673825;82;28139;-71
2021/07/12 05:00:47;;;;;;;9.33;7.70;;;;;;;20.14;69.56;100619.39;1675145;82;25317;-72
2021/07/12 05:03:17;;;;;;;11.95;6.92;;;;;;;20.18;69.65;100610.84;1672349;81;25682;-71
2021/07/12 05:05:43;;;;;;;10.03;7.53;;;;;;;20.23;69.56;100618.62;1682729;83;26153;-72
2021/07/12 05:08:11;;;;;;;8.63;7.12;;;;;;;20.30;69.58;100617.97;1669907;83;25837;-71
2021/07/12 05:10:41;;;;;;;22.10;7.67;;;;;;;20.39;69.63;100614.51;1664665;82;27547;-74
2021/07/12 05:13:08;;;;;;;14.13;8.08;;;;;;;20.51;69.65;100622.63;1654036;82;25805;-68
2021/07/12 05:15:37;;;;;;;11.45;7.42;;;;;;;20.58;69.50;100627.92;1666831;82;25761;-72
2021/07/12 05:18:04;;;;;;;11.97;7.70;;;;;;;20.65;69.54;100625.04;1665385;82;25689;-74
2021/07/12 05:20:33;;;;;;;11.48;6.72;;;;;;;20.77;69.51;100630.80;1652706;83;26537;-73
2021/07/12 05:23:01;;;;;;;12.03;7.95;;;;;;;20.85;69.49;100628.73;1660337;82;27531;-73
2021/07/12 05:25:28;;;;;;;9.20;7.75;;;;;;;20.96;69.52;100623.22;1673431;82;25772;-73
2021/07/12 05:27:54;;;;;;;8.53;7.40;;;;;;;21.00;69.31;100620.59;1659758;82;25773;-75
2021/07/12 05:30:24;;;;;;;13.70;7.30;;;;;;;21.04;69.33;100617.47;1663082;82;26103;-75
2021/07/12 05:32:50;;;;;;;11.60;7.17;;;;;;;21.16;69.41;100610.58;1671875;82;25816;-76
2021/07/12 05:35:16;;;;;;;11.18;7.50;;;;;;;21.22;69.20;100611.43;1670690;83;27573;-73
2021/07/12 05:37:44;;;;;;;12.88;7.58;;;;;;;21.26;69.17;100615.62;1681269;83;25936;-75
2021/07/12 05:40:12;;;;;;;16.10;7.28;;;;;;;21.45;69.29;100607.52;1661448;83;25844;-74
2021/07/12 05:42:38;;;;;;;17.23;8.15;;;;;;;21.45;69.29;100607.52;1667654;83;25770;-73
2021/07/12 05:45:07;;;;;;;10.75;7.10;;;;;;;21.57;69.08;100609.16;1676307;83;25857;-74
2021/07/12 05:47:37;;;;;;;9.95;7.28;;;;;;;21.67;68.98;100611.92;1675067;83;25781;-75
2021/07/12 05:50:09;;;;;;;11.03;7.25;;;;;;;21.75;68.97;100610.72;1675650;83;25560;-71
2021/07/12 05:52:36;;;;;;;11.12;8.18;;;;;;;21.80;68.71;100608.44;1675612;82;25780;-75
2021/07/12 05:55:08;;;;;;;12.07;7.80;;;;;;;21.80;68.68;100608.95;1675153;83;26149;-72
2021/07/12 05:57:37;;;;;;;11.35;7.62;;;;;;;21.82;68.60;100608.30;1668040;82;25803;-76
2021/07/12 06:00:13;;;;;;;12.80;8.30;;;;;;;21.87;68.61;100606.87;1652877;83;27492;-68
2021/07/12 06:02:41;;;;;;;10.98;6.92;;;;;;;21.92;68.64;100607.33;1679740;82;25749;-72
2021/07/12 06:05:09;;;;;;;12.30;7.47;;;;;;;21.92;68.64;100607.33;1683291;82;25851;-71
2021/07/12 06:07:42;;;;;;;10.80;7.67;;;;;;;21.90;68.27;100599.78;1683428;82;26048;-73
2021/07/12 06:10:10;;;;;;;9.70;8.25;;;;;;;21.91;68.30;100608.83;1680233;82;25744;-73
2021/07/12 06:12:36;;;;;;;10.10;7.87;;;;;;;21.93;68.23;100609.55;1672828;83;27481;-71
2021/07/12 06:15:06;;;;;;;10.28;7.72;;;;;;;21.95;68.18;100607.55;1667811;82;43985;-70
2021/07/12 06:17:33;;;;;;;9.98;7.67;;;;;;;21.81;68.06;100586.11;1670557;82;25856;-74
2021/07/12 06:20:00;;;;;;;11.88;8.18;;;;;;;21.83;67.95;100597.75;1668387;83;26100;-73
2021/07/12 06:22:28;;;;;;;14.28;7.75;;;;;;;21.82;67.70;100602.84;1694324;82;25707;-71
2021/07/12 06:24:54;;;;;;;15.75;7.75;;;;;;;21.90;67.89;100594.32;1668119;83;28137;-74
2021/07/12 06:27:22;;;;;;;14.25;8.03;;;;;;;21.90;67.89;100594.32;1671988;83;25930;-75
2021/07/12 06:29:48;;;;;;;11.93;7.45;;;;;;;21.97;67.98;100599.58;1668085;83;26057;-75
2021/07/12 06:32:13;;;;;;;12.68;7.70;;;;;;;21.97;67.98;100599.58;1672550;82;26071;-75
2021/07/12 06:34:41;;;;;;;8.60;7.00;;;;;;;22.05;67.94;100600.27;1670757;82;25908;-75
2021/07/12 06:37:07;;;;;;;8.85;7.25;;;;;;;22.10;67.89;100600.71;1664505;83;25686;-75
2021/07/12 06:39:36;;;;;;;14.78;7.58;;;;;;;22.19;67.77;100610.78;1663304;83;25349;-72
2021/07/12 06:42:04;;;;;;;11.65;7.33;;;;;;;22.19;67.77;100610.78;1677611;83;26017;-68
2021/07/12 06:44:30;;;;;;;11.93;6.55;;;;;;;22.28;67.78;100609.93;1696409;81;26101;-69
2021/07/12 06:46:55;;;;;;;12.90;7.72;;;;;;;22.42;67.79;100603.19;1680883;83;25960;-69
2021/07/12 06:49:23;;;;;;;15.98;7.58;;;;;;;22.58;67.66;100602.61;1682958;82;29830;-69
2021/07/12 06:51:49;;;;;;;12.45;7.35;;;;;;;22.69;67.55;100602.45;1692145;81;25808;-69
2021/07/12 06:54:18;;;;;;;10.13;6.90;;;;;;;22.85;67.52;100610.09;1666771;83;26240;-69
2021/07/12 06:56:44;;;;;;;11.68;6.22;;;;;;;23.03;67.42;100600.63;1706509;82;26070;-69
2021/07/12 06:59:11;;;;;;;11.03;6.75;;;;;;;23.19;67.23;100610.45;1687697;82;25818;-69
2021/07/12 07:01:36;;;;;;;11.73;6.30;;;;;;;23.36;67.05;100610.17;1700114;82;27508;-69
2021/07/12 07:04:03;;;;;;;10.45;5.17;;;;;;;23.48;66.88;100608.95;1672145;83;25833;-69
2021/07/12 07:06:29;;;;;;;6.72;5.15;;;;;;;23.62;66.71;100613.45;1665648;83;25714;-69
2021/07/12 07:08:54;;;;;;;9.78;5.20;;;;;;;23.77;66.49;100617.92;1694685;82;27021;-69
2021/07/12 07:11:22;;;;;;;8.03;5.25;;;;;;;23.92;66.16;100627.85;1680216;83;25810;-69
2021/07/12 07:13:52;;;;;;;6.70;4.58;;;;;;;24.00;65.88;100633.93;1691805;82;27541;-69
2021/07/12 07:16:22;;;;;;;5.95;4.37;;;;;;;24.07;65.55;100630.42;1692905;82;34042;-69
2021/07/12 07:18:48;;;;;;;8.63;5.12;;;;;;;24.12;65.22;100639.05;1691605;82;25776;-69
2021/07/12 07:21:14;;;;;;;6.70;4.80;;;;;;;24.17;64.85;100635.34;1713182;82;26550;-69
2021/07/12 07:23:42;;;;;;;6.20;4.60;;;;;;;24.24;64.69;100642.42;1702729;81;26395;-69
2021/07/12 07:26:13;;;;;;;8.85;4.65;;;;;;;24.37;64.59;100648.94;1667841;83;27540;-69
2021/07/12 07:28:40;;;;;;;4.42;3.80;;;;;;;24.51;64.33;100647.02;1703263;82;25824;-68
2021/07/12 07:31:06;;;;;;;10.60;4.25;;;;;;;24.68;64.10;100650.27;1674481;83;26469;-68
2021/07/12 07:33:35;;;;;;;7.33;3.65;;;;;;;24.69;63.70;100640.17;1701687;82;26268;-68
2021/07/12 07:36:04;;;;;;;9.63;3.12;;;;;;;24.77;63.28;100648.47;1688604;82;25793;-68
2021/07/12 07:38:29;;;;;;;5.10;3.20;;;;;;;24.76;62.83;100641.27;1675020;83;28055;-68
2021/07/12 07:40:58;;;;;;;6.20;3.90;;;;;;;24.74;62.48;100641.42;1681897;82;26262;-68
2021/07/12 07:43:24;;;;;;;7.50;3.27;;;;;;;24.71;62.21;100645.84;1699410;82;25824;-68
2021/07/12 07:45:50;;;;;;;3.95;3.27;;;;;;;24.76;62.02;100631.16;1687269;83;26154;-71
2021/07/12 07:48:17;;;;;;;7.03;3.70;;;;;;;24.89;61.74;100634.86;1693483;83;26186;-68
2021/07/12 07:50:43;;;;;;;4.40;3.27;;;;;;;25.03;61.54;100630.72;1652870;83;27526;-67
2021/07/12 07:53:10;;;;;;;7.60;3.30;;;;;;;25.16;61.34;100627.91;1663394;83;26391;-68
2021/07/12 07:55:38;;;;;;;8.15;3.27;;;;;;;25.26;61.06;100629.17;1705769;81;26622;-69
2021/07/12 07:58:05;;;;;;;6.40;3.20;;;;;;;25.29;60.66;100631.59;1697350;82;26014;-66
2021/07/12 08:00:31;;;;;;;11.88;4.20;;;;;;;25.26;60.57;100626.42;1697611;82;25789;-66
2021/07/12 08:02:59;;;;;;;12.05;4.17;;;;;;;25.31;60.34;100628.69;1658720;83;27575;-66
2021/07/12 08:05:27;;;;;;;9.00;3.80;;;;;;;25.27;60.09;100626.77;1661817;84;26274;-60
2021/07/12 08:07:53;;;;;;;3.90;3.35;;;;;;;25.30;60.04;100626.45;1680350;83;25873;-60
2021/07/12 08:10:20;;;;;;;9.30;3.95;;;;;;;25.39;59.89;100629.59;1688100;82;26179;-59
2021/07/12 08:12:48;;;;;;;5.35;3.80;;;;;;;25.49;59.73;100622.62;1701457;83;26487;-58
2021/07/12 08:15:17;;;;;;;7.28;4.00;;;;;;;25.51;59.53;100622.80;1698533;81;27489;-61
2021/07/12 08:17:46;;;;;;;8.98;3.98;;;;;;;25.61;59.45;100624.56;1653586;84;25787;-61
2021/07/12 08:20:17;;;;;;;5.00;4.10;;;;;;;25.67;59.31;100625.31;1653497;84;25791;-62
2021/07/12 08:22:50;;;;;;;6.35;4.33;;;;;;;25.72;59.16;100629.80;1708240;81;26105;-62
2021/07/12 08:25:16;;;;;;;4.83;4.00;;;;;;;25.70;58.89;100625.84;1669732;83;25715;-61
2021/07/12 08:27:42;;;;;;;8.18;4.42;;;;;;;25.68;58.78;100621.55;1640030;85;29603;-64
2021/07/12 08:30:12;;;;;;;7.85;5.45;;;;;;;25.66;58.65;100627.72;1658613;84;25754;-62
2021/07/12 08:32:42;;;;;;;5.05;4.25;;;;;;;25.59;58.51;100627.48;1701225;83;26837;-63
2021/07/12 08:35:14;;;;;;;5.17;4.08;;;;;;;25.58;58.49;100619.41;1703667;81;25943;-64
2021/07/12 08:37:40;;;;;;;7.53;4.72;;;;;;;25.60;58.32;100615.47;1686633;83;25733;-64
2021/07/12 08:40:10;;;;;;;8.03;4.55;;;;;;;25.67;58.37;100617.94;1702489;83;27959;-65
2021/07/12 08:42:36;;;;;;;11.05;6.87;;;;;;;25.74;58.18;100618.14;1702339;81;26505;-65
2021/07/12 08:45:07;;;;;;;5.80;4.92;;;;;;;25.73;58.13;100611.79;1682479;82;26398;-65
2021/07/12 08:47:35;;;;;;;13.40;4.75;;;;;;;25.83;58.17;100612.52;1636668;85;26081;-66
2021/07/12 08:50:08;;;;;;;6.67;5.80;;;;;;;25.98;58.06;100607.77;1647000;85;26199;-65
2021/07/12 08:52:36;;;;;;;5.20;4.70;;;;;;;26.04;57.85;100596.08;1653698;84;27497;-64
2021/07/12 08:55:06;;;;;;;8.68;6.42;;;;;;;26.04;57.64;100599.69;1654591;85;25865;-64
2021/07/12 08:57:33;;;;;;;5.87;5.10;;;;;;;26.03;57.54;100599.85;1646738;85;25770;-66
2021/07/12 09:00:02;;;;;;;10.10;4.90;;;;;;;26.00;57.47;100581.85;1645044;85;26113;-63
2021/07/12 09:02:32;;;;;;;11.30;5.08;;;;;;;26.17;57.34;100599.20;1645858;84;26494;-65
2021/07/12 09:04:59;;;;;;;6.47;4.92;;;;;;;26.25;57.24;100601.11;1643330;84;28196;-65
2021/07/12 09:07:29;;;;;;;7.90;4.58;;;;;;;26.41;57.22;100595.16;1633497;84;25841;-64
2021/07/12 09:10:13;;;;;;;8.85;4.80;;;;;;;26.59;57.12;100588.12;1648807;84;25777;-65
2021/07/12 09:12:50;;;;;;;8.18;5.37;;;;;;;26.82;56.81;100596.03;1638674;84;26410;-65
2021/07/12 09:15:20;;;;;;;7.03;4.55;;;;;;;26.88;56.53;100588.98;1627473;84;25843;-66
2021/07/12 09:17:50;;;;;;;8.55;5.22;;;;;;;26.94;56.40;100581.92;1634441;85;27574;-66
2021/07/12 09:20:33;;;;;;;6.15;4.62;;;;;;;26.97;56.23;100587.11;1632451;84;25843;-65
2021/07/12 09:23:20;;;;;;;6.22;5.33;;;;;;;26.97;56.11;100577.48;1637583;85;25789;-65
2021/07/12 09:26:03;;;;;;;6.22;5.37;;;;;;;26.88;56.00;100571.62;1627841;85;26077;-65
2021/07/12 09:28:48;;;;;;;7.15;5.17;;;;;;;26.78;55.70;100570.42;1610124;86;25768;-65
2021/07/12 09:31:32;;;;;;;9.73;5.78;;;;;;;26.66;55.52;100571.80;1639966;85;27333;-65
2021/07/12 09:34:02;;;;;;;5.65;4.85;;;;;;;26.55;55.60;100569.39;1643124;84;25811;-64
2021/07/12 09:36:35;;;;;;;13.93;6.45;;;;;;;26.48;55.53;100566.47;1650388;84;26351;-65
2021/07/12 09:39:28;;;;;;;13.78;6.05;;;;;;;26.44;55.53;100565.09;1646530;84;26072;-65
2021/07/12 09:41:59;;;;;;;7.90;5.65;;;;;;;26.47;55.57;100565.61;1639527;85;25742;-63
2021/07/12 09:44:27;;;;;;;;;;;;;;;26.31;55.40;100561.45;1647157;81;27418;-64
2021/07/12 09:46:56;;;;;;;22.07;15.10;;;;;;;26.25;55.29;100560.75;1699722;81;25918;-64
2021/07/12 09:49:23;;;;;;;8.65;6.75;;;;;;;26.24;55.54;100560.92;1698634;81;26135;-64
2021/07/12 09:52:01;;;;;;;6.05;5.45;;;;;;;26.35;55.45;100562.00;1690217;81;26106;-64
2021/07/12 09:54:36;;;;;;;11.15;5.47;;;;;;;26.41;55.48;100560.80;1694671;81;26392;-64
2021/07/12 09:57:17;;;;;;;5.33;4.62;;;;;;;26.45;55.18;100557.20;1700771;82;27468;-65
2021/07/12 10:00:03;;;;;;;8.88;5.47;;;;;;;26.36;55.08;100554.09;1651218;83;27550;-65
2021/07/12 10:02:35;;;;;;;10.32;5.25;;;;;;;26.31;55.15;100557.33;1651502;84;25854;-65
2021/07/12 10:05:09;;;;;;;8.30;5.08;;;;;;;26.30;55.17;100556.98;1640720;85;26474;-65
2021/07/12 10:07:36;;;;;;;11.65;4.78;;;;;;;26.41;55.22;100563.55;1660684;84;26388;-64
2021/07/12 10:10:13;;;;;;;6.85;4.85;;;;;;;26.55;54.99;100570.25;1649251;83;27639;-65
2021/07/12 10:12:40;;;;;;;8.78;5.42;;;;;;;26.46;54.89;100541.91;1653516;83;25797;-64
2021/07/12 10:15:08;;;;;;;8.05;5.28;;;;;;;26.67;54.63;100574.38;1623799;85;26625;-64
2021/07/12 10:17:34;;;;;;;7.72;5.47;;;;;;;26.74;54.66;100574.03;1630174;85;26213;-64
2021/07/12 10:20:00;;;;;;;9.65;5.28;;;;;;;26.83;54.55;100578.50;1626268;84;26204;-64
2021/07/12 10:22:35;;;;;;;8.48;5.25;;;;;;;26.89;54.26;100577.46;1636175;85;27960;-64
2021/07/12 10:25:16;;;;;;;13.10;5.85;;;;;;;26.85;54.09;100585.20;1654635;83;26793;-64
2021/07/12 10:28:01;;;;;;;10.45;5.97;;;;;;;26.80;54.02;100591.22;1666708;84;25861;-62
2021/07/12 10:30:48;;;;;;;9.60;5.60;;;;;;;26.67;53.73;100586.75;1621625;86;26093;-63
2021/07/12 10:33:18;;;;;;;11.40;5.58;;;;;;;26.42;53.64;100569.91;1618166;86;25341;-63
2021/07/12 10:35:57;;;;;;;8.13;5.87;;;;;;;26.16;53.56;100573.61;1640488;84;27563;-63
2021/07/12 10:38:40;;;;;;;11.55;5.30;;;;;;;26.04;53.95;100565.34;1649984;85;25724;-63
2021/07/12 10:41:29;;;;;;;11.10;6.17;;;;;;;26.01;53.95;100553.33;1656207;83;25903;-63
2021/07/12 10:44:00;;;;;;;8.35;5.53;;;;;;;25.99;54.20;100541.67;1661406;84;26160;-63
2021/07/12 10:46:35;;;;;;;5.85;5.25;;;;;;;25.95;54.22;100533.95;1692109;81;25958;-63
2021/07/12 10:49:10;;;;;;;9.65;5.58;;;;;;;25.93;54.45;100530.51;1657165;83;27561;-63
2021/07/12 10:51:42;;;;;;;7.12;5.90;;;;;;;26.03;54.69;100526.55;1627760;84;25850;-63
2021/07/12 10:54:29;;;;;;;;;;;;;;;;;;;;;
2021/07/12 10:56:57;;;;;;;9.88;7.62;;;;;;;26.21;54.75;100528.63;1690497;83;26072;-64
2021/07/12 10:59:37;;;;;;;8.53;6.80;;;;;;;26.26;54.87;100525.37;1696143;83;26526;-63
2021/07/12 11:02:22;;;;;;;8.25;6.58;;;;;;;26.37;54.99;100511.33;1686708;82;27918;-63
2021/07/12 11:05:01;;;;;;;6.83;6.22;;;;;;;26.75;55.19;100531.75;1696221;81;26170;-64
2021/07/12 11:07:46;;;;;;;7.70;6.65;;;;;;;27.18;55.17;100527.40;1692032;81;25892;-63
2021/07/12 11:10:38;;;;;;;13.93;6.40;;;;;;;27.44;54.65;100526.09;1652786;83;26077;-63
2021/07/12 11:13:05;;;;;;;11.85;6.75;;;;;;;27.46;54.57;100530.05;1640841;83;25963;-63
2021/07/12 11:15:36;;;;;;;10.93;6.47;;;;;;;27.65;54.56;100526.90;1662510;84;28157;-68
2021/07/12 11:18:07;;;;;;;14.60;6.78;;;;;;;27.74;54.55;100534.59;1688392;83;26925;-68
2021/07/12 11:20:53;;;;;;;6.90;4.90;;;;;;;27.68;54.47;100538.93;1686088;83;25789;-64
2021/07/12 11:23:55;;;;;;;5.17;4.42;;;;;;;27.68;54.68;100539.45;1653517;83;26160;-62
2021/07/12 11:26:27;;;;;;;8.75;4.28;;;;;;;27.68;54.71;100540.83;1610242;86;26106;-64
2021/07/12 11:28:58;;;;;;;8.03;4.85;;;;;;;27.49;54.30;100540.70;1697283;83;27371;-61
2021/07/12 11:31:47;;;;;;;6.85;4.65;;;;;;;27.29;54.35;100536.13;1653334;83;26278;-61
2021/07/12 11:34:32;;;;;;;6.77;4.33;;;;;;;27.19;54.47;100542.36;1659492;84;25871;-61
2021/07/12 11:37:21;;;;;;;6.58;4.83;;;;;;;27.21;54.54;100543.55;1687923;83;26098;-61
2021/07/12 11:39:58;;;;;;;5.72;4.17;;;;;;;27.14;54.45;100539.27;1681158;83;25840;-62
2021/07/12 11:42:38;;;;;;;6.53;5.30;;;;;;;27.10;54.40;100522.27;1690086;81;27381;-68
2021/07/12 11:45:13;;;;;;;6.58;4.42;;;;;;;27.05;54.14;100519.17;1658340;84;25863;-63